sensor_id;sensor_type;location;lat;lon;timestamp;P1;durP1;ratioP1;P2;durP2;ratioP2
23668;SDS011;12011;47.422;15.018;2023-02-01T00:01:19;0.23;;;0.21;;
23668;SDS011;12011;47.422;15.018;2023-02-01T00:03:54;0.27;;;0.25;;
23668;SDS011;12011;47.422;15.018;2023-02-01T00:06:24;0.29;;;0.27;;
23668;SDS011;12011;47.422;15.018;2023-02-01T00:08:54;0.49;;;0.45;;
23668;SDS011;12011;47.422;15.018;2023-02-01T00:11:24;0.39;;;0.36;;
23668;SDS011;12011;47.422;15.018;2023-02-01T00:14:02;0.17;;;0.16;;
23668;SDS011;12011;47.422;15.018;2023-02-01T00:16:36;0.17;;;0.16;;
23668;SDS011;12011;47.422;15.018;2023-02-01T00:19:09;0.23;;;0.21;;
23668;SDS011;12011;47.422;15.018;2023-02-01T00:21:45;0.18;;;0.16;;
23668;SDS011;12011;47.422;15.018;2023-02-01T00:24:15;0.23;;;0.21;;
23668;SDS011;12011;47.422;15.018;2023-02-01T00:26:46;0.17;;;0.16;;
23668;SDS011;12011;47.422;15.018;2023-02-01T00:29:24;0.17;;;0.16;;
23668;SDS011;12011;47.422;15.018;2023-02-01T00:32:01;0.21;;;0.19;;
23668;SDS011;12011;47.422;15.018;2023-02-01T00:34:33;0.14;;;0.13;;
23668;SDS011;12011;47.422;15.018;2023-02-01T00:37:12;0.17;;;0.16;;
23668;SDS011;12011;47.422;15.018;2023-02-01T00:39:44;0.15;;;0.14;;
23668;SDS011;12011;47.422;15.018;2023-02-01T00:42:15;0.11;;;0.10;;
23668;SDS011;12011;47.422;15.018;2023-02-01T00:44:50;0.15;;;0.14;;
23668;SDS011;12011;47.422;15.018;2023-02-01T00:47:23;0.12;;;0.11;;
23668;SDS011;12011;47.422;15.018;2023-02-01T00:49:56;0.11;;;0.10;;
23668;SDS011;12011;47.422;15.018;2023-02-01T00:52:31;0.13;;;0.12;;
23668;SDS011;12011;47.422;15.018;2023-02-01T00:55:12;0.12;;;0.11;;
23668;SDS011;12011;47.422;15.018;2023-02-01T00:57:43;0.19;;;0.18;;
23668;SDS011;12011;47.422;15.018;2023-02-01T01:00:21;0.17;;;0.16;;
23668;SDS011;12011;47.422;15.018;2023-02-01T01:02:55;0.15;;;0.14;;
23668;SDS011;12011;47.422;15.018;2023-02-01T01:05:43;0.28;;;0.26;;
23668;SDS011;12011;47.422;15.018;2023-02-01T01:08:17;0.23;;;0.22;;
23668;SDS011;12011;47.422;15.018;2023-02-01T01:10:52;0.20;;;0.19;;
23668;SDS011;12011;47.422;15.018;2023-02-01T01:13:25;0.20;;;0.19;;
23668;SDS011;12011;47.422;15.018;2023-02-01T01:16:07;0.14;;;0.13;;
23668;SDS011;12011;47.422;15.018;2023-02-01T01:18:47;0.23;;;0.21;;
23668;SDS011;12011;47.422;15.018;2023-02-01T01:21:21;0.23;;;0.21;;
23668;SDS011;12011;47.422;15.018;2023-02-01T01:23:53;0.26;;;0.24;;
23668;SDS011;12011;47.422;15.018;2023-02-01T01:26:27;0.25;;;0.23;;
23668;SDS011;12011;47.422;15.018;2023-02-01T01:28:59;0.26;;;0.24;;
23668;SDS011;12011;47.422;15.018;2023-02-01T01:31:56;0.16;;;0.15;;
23668;SDS011;12011;47.422;15.018;2023-02-01T01:34:39;0.19;;;0.18;;
23668;SDS011;12011;47.422;15.018;2023-02-01T01:37:09;0.32;;;0.30;;
23668;SDS011;12011;47.422;15.018;2023-02-01T01:39:41;0.21;;;0.20;;
23668;SDS011;12011;47.422;15.018;2023-02-01T01:42:12;0.24;;;0.23;;
23668;SDS011;12011;47.422;15.018;2023-02-01T01:44:57;0.11;;;0.11;;
23668;SDS011;12011;47.422;15.018;2023-02-01T01:47:37;0.09;;;0.09;;
23668;SDS011;12011;47.422;15.018;2023-02-01T01:50:23;0.13;;;0.13;;
23668;SDS011;12011;47.422;15.018;2023-02-01T01:53:00;0.13;;;0.12;;
23668;SDS011;12011;47.422;15.018;2023-02-01T01:55:38;0.17;;;0.16;;
23668;SDS011;12011;47.422;15.018;2023-02-01T01:58:17;0.12;;;0.11;;
23668;SDS011;12011;47.422;15.018;2023-02-01T02:00:56;0.14;;;0.13;;
23668;SDS011;12011;47.422;15.018;2023-02-01T02:03:32;0.07;;;0.06;;
23668;SDS011;12011;47.422;15.018;2023-02-01T02:06:10;0.09;;;0.08;;
23668;SDS011;12011;47.422;15.018;2023-02-01T02:08:53;0.10;;;0.09;;
23668;SDS011;12011;47.422;15.018;2023-02-01T02:11:26;0.90;;;0.83;;
23668;SDS011;12011;47.422;15.018;2023-02-01T02:14:01;0.13;;;0.12;;
23668;SDS011;12011;47.422;15.018;2023-02-01T02:20:18;0.08;;;0.07;;
23668;SDS011;12011;47.422;15.018;2023-02-01T02:26:57;0.15;;;0.13;;
23668;SDS011;12011;47.422;15.018;2023-02-01T02:30:04;0.05;;;0.05;;
23668;SDS011;12011;47.422;15.018;2023-02-01T02:36:17;0.14;;;0.12;;
23668;SDS011;12011;47.422;15.018;2023-02-01T02:39:09;0.09;;;0.08;;
23668;SDS011;12011;47.422;15.018;2023-02-01T02:41:56;0.14;;;0.13;;
23668;SDS011;12011;47.422;15.018;2023-02-01T02:44:53;0.20;;;0.18;;
23668;SDS011;12011;47.422;15.018;2023-02-01T02:47:47;0.15;;;0.13;;
23668;SDS011;12011;47.422;15.018;2023-02-01T02:50:30;0.10;;;0.09;;
23668;SDS011;12011;47.422;15.018;2023-02-01T02:53:23;0.17;;;0.15;;
23668;SDS011;12011;47.422;15.018;2023-02-01T02:56:13;0.28;;;0.25;;
23668;SDS011;12011;47.422;15.018;2023-02-01T02:59:04;0.09;;;0.08;;
23668;SDS011;12011;47.422;15.018;2023-02-01T03:02:11;0.13;;;0.12;;
23668;SDS011;12011;47.422;15.018;2023-02-01T03:04:59;0.13;;;0.11;;
23668;SDS011;12011;47.422;15.018;2023-02-01T03:10:33;0.19;;;0.17;;
23668;SDS011;12011;47.422;15.018;2023-02-01T03:13:19;0.08;;;0.07;;
23668;SDS011;12011;47.422;15.018;2023-02-01T03:16:02;0.20;;;0.18;;
23668;SDS011;12011;47.422;15.018;2023-02-01T03:18:45;0.23;;;0.21;;
23668;SDS011;12011;47.422;15.018;2023-02-01T03:21:24;0.07;;;0.06;;
23668;SDS011;12011;47.422;15.018;2023-02-01T03:24:09;0.04;;;0.04;;
23668;SDS011;12011;47.422;15.018;2023-02-01T03:26:47;0.14;;;0.13;;
23668;SDS011;12011;47.422;15.018;2023-02-01T03:29:29;0.13;;;0.12;;
23668;SDS011;12011;47.422;15.018;2023-02-01T03:32:10;0.08;;;0.07;;
23668;SDS011;12011;47.422;15.018;2023-02-01T03:34:50;0.20;;;0.18;;
23668;SDS011;12011;47.422;15.018;2023-02-01T03:37:26;0.11;;;0.10;;
23668;SDS011;12011;47.422;15.018;2023-02-01T03:40:03;0.13;;;0.12;;
23668;SDS011;12011;47.422;15.018;2023-02-01T03:42:43;0.12;;;0.11;;
23668;SDS011;12011;47.422;15.018;2023-02-01T03:45:20;0.07;;;0.06;;
23668;SDS011;12011;47.422;15.018;2023-02-01T03:48:01;0.10;;;0.10;;
23668;SDS011;12011;47.422;15.018;2023-02-01T03:50:37;0.20;;;0.18;;
23668;SDS011;12011;47.422;15.018;2023-02-01T03:53:20;0.14;;;0.13;;
23668;SDS011;12011;47.422;15.018;2023-02-01T03:55:58;0.17;;;0.16;;
23668;SDS011;12011;47.422;15.018;2023-02-01T03:58:33;0.15;;;0.14;;
23668;SDS011;12011;47.422;15.018;2023-02-01T04:01:06;0.09;;;0.08;;
23668;SDS011;12011;47.422;15.018;2023-02-01T04:03:40;0.13;;;0.13;;
23668;SDS011;12011;47.422;15.018;2023-02-01T04:06:12;0.18;;;0.17;;
23668;SDS011;12011;47.422;15.018;2023-02-01T04:08:42;0.12;;;0.11;;
23668;SDS011;12011;47.422;15.018;2023-02-01T04:11:20;0.28;;;0.26;;
23668;SDS011;12011;47.422;15.018;2023-02-01T04:14:03;0.24;;;0.22;;
23668;SDS011;12011;47.422;15.018;2023-02-01T04:16:33;0.18;;;0.17;;
23668;SDS011;12011;47.422;15.018;2023-02-01T04:19:07;0.29;;;0.27;;
23668;SDS011;12011;47.422;15.018;2023-02-01T04:21:37;0.31;;;0.29;;
23668;SDS011;12011;47.422;15.018;2023-02-01T04:24:17;1.78;;;1.67;;
23668;SDS011;12011;47.422;15.018;2023-02-01T04:26:57;1.07;;;1.00;;
23668;SDS011;12011;47.422;15.018;2023-02-01T04:29:32;0.48;;;0.46;;
23668;SDS011;12011;47.422;15.018;2023-02-01T04:32:02;0.69;;;0.66;;
23668;SDS011;12011;47.422;15.018;2023-02-01T04:34:35;0.49;;;0.47;;
23668;SDS011;12011;47.422;15.018;2023-02-01T04:37:05;0.24;;;0.23;;
23668;SDS011;12011;47.422;15.018;2023-02-01T04:39:36;0.32;;;0.31;;
23668;SDS011;12011;47.422;15.018;2023-02-01T04:42:09;0.43;;;0.42;;
23668;SDS011;12011;47.422;15.018;2023-02-01T04:44:40;0.56;;;0.53;;
23668;SDS011;12011;47.422;15.018;2023-02-01T04:47:12;0.19;;;0.18;;
23668;SDS011;12011;47.422;15.018;2023-02-01T04:49:45;0.33;;;0.31;;
23668;SDS011;12011;47.422;15.018;2023-02-01T04:52:15;0.25;;;0.24;;
23668;SDS011;12011;47.422;15.018;2023-02-01T04:54:46;0.30;;;0.29;;
23668;SDS011;12011;47.422;15.018;2023-02-01T04:57:19;0.15;;;0.14;;
23668;SDS011;12011;47.422;15.018;2023-02-01T04:59:54;0.20;;;0.19;;
23668;SDS011;12011;47.422;15.018;2023-02-01T05:02:29;0.15;;;0.14;;
23668;SDS011;12011;47.422;15.018;2023-02-01T05:05:01;0.15;;;0.15;;
23668;SDS011;12011;47.422;15.018;2023-02-01T05:07:38;0.08;;;0.07;;
23668;SDS011;12011;47.422;15.018;2023-02-01T05:10:10;0.09;;;0.09;;
23668;SDS011;12011;47.422;15.018;2023-02-01T05:12:46;0.08;;;0.08;;
23668;SDS011;12011;47.422;15.018;2023-02-01T05:15:34;0.13;;;0.13;;
23668;SDS011;12011;47.422;15.018;2023-02-01T05:18:12;0.10;;;0.10;;
23668;SDS011;12011;47.422;15.018;2023-02-01T05:20:57;0.21;;;0.21;;
23668;SDS011;12011;47.422;15.018;2023-02-01T05:23:27;0.23;;;0.22;;
23668;SDS011;12011;47.422;15.018;2023-02-01T05:26:23;0.12;;;0.12;;
23668;SDS011;12011;47.422;15.018;2023-02-01T05:29:07;0.14;;;0.13;;
23668;SDS011;12011;47.422;15.018;2023-02-01T05:31:47;0.14;;;0.14;;
23668;SDS011;12011;47.422;15.018;2023-02-01T05:34:24;0.16;;;0.15;;
23668;SDS011;12011;47.422;15.018;2023-02-01T05:37:13;0.32;;;0.31;;
23668;SDS011;12011;47.422;15.018;2023-02-01T05:39:59;0.34;;;0.33;;
23668;SDS011;12011;47.422;15.018;2023-02-01T05:42:30;0.21;;;0.20;;
23668;SDS011;12011;47.422;15.018;2023-02-01T05:45:08;0.26;;;0.25;;
23668;SDS011;12011;47.422;15.018;2023-02-01T05:47:41;0.37;;;0.36;;
23668;SDS011;12011;47.422;15.018;2023-02-01T05:50:15;0.30;;;0.30;;
23668;SDS011;12011;47.422;15.018;2023-02-01T05:52:54;0.18;;;0.17;;
23668;SDS011;12011;47.422;15.018;2023-02-01T05:55:23;0.21;;;0.20;;
23668;SDS011;12011;47.422;15.018;2023-02-01T05:57:53;0.34;;;0.34;;
23668;SDS011;12011;47.422;15.018;2023-02-01T06:00:25;0.63;;;0.62;;
23668;SDS011;12011;47.422;15.018;2023-02-01T06:02:55;0.51;;;0.50;;
23668;SDS011;12011;47.422;15.018;2023-02-01T06:05:24;0.49;;;0.47;;
23668;SDS011;12011;47.422;15.018;2023-02-01T06:07:54;0.56;;;0.54;;
23668;SDS011;12011;47.422;15.018;2023-02-01T06:10:23;0.33;;;0.33;;
23668;SDS011;12011;47.422;15.018;2023-02-01T06:12:53;0.29;;;0.28;;
23668;SDS011;12011;47.422;15.018;2023-02-01T06:15:25;0.24;;;0.24;;
23668;SDS011;12011;47.422;15.018;2023-02-01T06:17:55;0.46;;;0.45;;
23668;SDS011;12011;47.422;15.018;2023-02-01T06:20:24;0.79;;;0.77;;
23668;SDS011;12011;47.422;15.018;2023-02-01T06:22:54;0.46;;;0.45;;
23668;SDS011;12011;47.422;15.018;2023-02-01T06:25:23;0.53;;;0.52;;
23668;SDS011;12011;47.422;15.018;2023-02-01T06:27:53;0.32;;;0.32;;
23668;SDS011;12011;47.422;15.018;2023-02-01T06:30:25;0.19;;;0.19;;
23668;SDS011;12011;47.422;15.018;2023-02-01T06:32:56;0.19;;;0.19;;
23668;SDS011;12011;47.422;15.018;2023-02-01T06:35:25;0.27;;;0.26;;
23668;SDS011;12011;47.422;15.018;2023-02-01T06:37:55;0.34;;;0.33;;
23668;SDS011;12011;47.422;15.018;2023-02-01T06:40:24;2.66;;;2.60;;
23668;SDS011;12011;47.422;15.018;2023-02-01T06:42:54;0.97;;;0.94;;
23668;SDS011;12011;47.422;15.018;2023-02-01T06:45:26;0.46;;;0.44;;
23668;SDS011;12011;47.422;15.018;2023-02-01T06:47:56;0.36;;;0.35;;
23668;SDS011;12011;47.422;15.018;2023-02-01T06:50:26;0.43;;;0.42;;
23668;SDS011;12011;47.422;15.018;2023-02-01T06:52:56;0.51;;;0.50;;
23668;SDS011;12011;47.422;15.018;2023-02-01T06:55:26;0.65;;;0.63;;
23668;SDS011;12011;47.422;15.018;2023-02-01T06:57:55;0.67;;;0.66;;
23668;SDS011;12011;47.422;15.018;2023-02-01T07:00:29;0.59;;;0.58;;
23668;SDS011;12011;47.422;15.018;2023-02-01T07:02:58;0.97;;;0.96;;
23668;SDS011;12011;47.422;15.018;2023-02-01T07:05:28;0.87;;;0.86;;
23668;SDS011;12011;47.422;15.018;2023-02-01T07:07:57;0.82;;;0.82;;
23668;SDS011;12011;47.422;15.018;2023-02-01T07:10:27;0.68;;;0.67;;
23668;SDS011;12011;47.422;15.018;2023-02-01T07:12:56;0.35;;;0.35;;
23668;SDS011;12011;47.422;15.018;2023-02-01T07:15:29;0.45;;;0.45;;
23668;SDS011;12011;47.422;15.018;2023-02-01T07:17:58;0.70;;;0.69;;
23668;SDS011;12011;47.422;15.018;2023-02-01T07:20:28;0.58;;;0.58;;
23668;SDS011;12011;47.422;15.018;2023-02-01T07:22:57;0.21;;;0.20;;
23668;SDS011;12011;47.422;15.018;2023-02-01T07:25:27;0.10;;;0.10;;
23668;SDS011;12011;47.422;15.018;2023-02-01T07:27:56;0.26;;;0.26;;
23668;SDS011;12011;47.422;15.018;2023-02-01T07:30:29;0.31;;;0.31;;
23668;SDS011;12011;47.422;15.018;2023-02-01T07:32:58;0.29;;;0.28;;
23668;SDS011;12011;47.422;15.018;2023-02-01T07:35:28;0.26;;;0.26;;
23668;SDS011;12011;47.422;15.018;2023-02-01T07:37:57;0.33;;;0.33;;
23668;SDS011;12011;47.422;15.018;2023-02-01T07:40:27;0.36;;;0.36;;
23668;SDS011;12011;47.422;15.018;2023-02-01T07:42:56;0.31;;;0.31;;
23668;SDS011;12011;47.422;15.018;2023-02-01T07:45:29;0.34;;;0.34;;
23668;SDS011;12011;47.422;15.018;2023-02-01T07:47:58;0.27;;;0.27;;
23668;SDS011;12011;47.422;15.018;2023-02-01T07:50:28;0.47;;;0.46;;
23668;SDS011;12011;47.422;15.018;2023-02-01T07:52:58;0.32;;;0.32;;
23668;SDS011;12011;47.422;15.018;2023-02-01T07:55:28;0.31;;;0.31;;
23668;SDS011;12011;47.422;15.018;2023-02-01T07:57:58;0.22;;;0.22;;
23668;SDS011;12011;47.422;15.018;2023-02-01T08:00:30;0.23;;;0.23;;
23668;SDS011;12011;47.422;15.018;2023-02-01T08:03:12;0.25;;;0.25;;
23668;SDS011;12011;47.422;15.018;2023-02-01T08:05:42;0.28;;;0.28;;
23668;SDS011;12011;47.422;15.018;2023-02-01T08:08:11;0.25;;;0.25;;
23668;SDS011;12011;47.422;15.018;2023-02-01T08:10:40;0.33;;;0.33;;
23668;SDS011;12011;47.422;15.018;2023-02-01T08:13:10;0.22;;;0.22;;
23668;SDS011;12011;47.422;15.018;2023-02-01T08:15:42;0.13;;;0.13;;
23668;SDS011;12011;47.422;15.018;2023-02-01T08:18:11;0.15;;;0.15;;
23668;SDS011;12011;47.422;15.018;2023-02-01T08:20:41;0.19;;;0.18;;
23668;SDS011;12011;47.422;15.018;2023-02-01T08:23:11;0.25;;;0.25;;
23668;SDS011;12011;47.422;15.018;2023-02-01T08:25:40;0.25;;;0.25;;
23668;SDS011;12011;47.422;15.018;2023-02-01T08:28:10;0.15;;;0.15;;
23668;SDS011;12011;47.422;15.018;2023-02-01T08:30:43;0.19;;;0.19;;
23668;SDS011;12011;47.422;15.018;2023-02-01T08:33:12;0.29;;;0.29;;
23668;SDS011;12011;47.422;15.018;2023-02-01T08:35:42;0.34;;;0.34;;
23668;SDS011;12011;47.422;15.018;2023-02-01T08:38:12;0.29;;;0.29;;
23668;SDS011;12011;47.422;15.018;2023-02-01T08:40:41;0.30;;;0.30;;
23668;SDS011;12011;47.422;15.018;2023-02-01T08:43:11;0.34;;;0.34;;
23668;SDS011;12011;47.422;15.018;2023-02-01T08:45:44;0.18;;;0.18;;
23668;SDS011;12011;47.422;15.018;2023-02-01T08:48:13;0.21;;;0.21;;
23668;SDS011;12011;47.422;15.018;2023-02-01T08:50:43;0.14;;;0.14;;
23668;SDS011;12011;47.422;15.018;2023-02-01T08:53:12;0.13;;;0.12;;
23668;SDS011;12011;47.422;15.018;2023-02-01T08:55:41;0.30;;;0.30;;
23668;SDS011;12011;47.422;15.018;2023-02-01T08:58:11;0.23;;;0.23;;
23668;SDS011;12011;47.422;15.018;2023-02-01T09:00:45;0.25;;;0.25;;
23668;SDS011;12011;47.422;15.018;2023-02-01T09:03:15;0.16;;;0.15;;
23668;SDS011;12011;47.422;15.018;2023-02-01T09:05:45;0.17;;;0.17;;
23668;SDS011;12011;47.422;15.018;2023-02-01T09:08:15;0.19;;;0.18;;
23668;SDS011;12011;47.422;15.018;2023-02-01T09:10:45;0.10;;;0.10;;
23668;SDS011;12011;47.422;15.018;2023-02-01T09:13:15;0.11;;;0.11;;
23668;SDS011;12011;47.422;15.018;2023-02-01T09:15:52;0.11;;;0.11;;
23668;SDS011;12011;47.422;15.018;2023-02-01T09:18:22;0.24;;;0.24;;
23668;SDS011;12011;47.422;15.018;2023-02-01T09:20:52;0.17;;;0.17;;
23668;SDS011;12011;47.422;15.018;2023-02-01T09:23:21;0.18;;;0.17;;
23668;SDS011;12011;47.422;15.018;2023-02-01T09:25:51;0.21;;;0.20;;
23668;SDS011;12011;47.422;15.018;2023-02-01T09:28:20;0.27;;;0.27;;
23668;SDS011;12011;47.422;15.018;2023-02-01T09:30:54;0.26;;;0.26;;
23668;SDS011;12011;47.422;15.018;2023-02-01T09:33:25;0.19;;;0.18;;
23668;SDS011;12011;47.422;15.018;2023-02-01T09:35:56;0.23;;;0.23;;
23668;SDS011;12011;47.422;15.018;2023-02-01T09:38:25;0.39;;;0.38;;
23668;SDS011;12011;47.422;15.018;2023-02-01T09:40:55;0.31;;;0.31;;
23668;SDS011;12011;47.422;15.018;2023-02-01T09:43:32;0.35;;;0.35;;
23668;SDS011;12011;47.422;15.018;2023-02-01T09:46:17;0.28;;;0.28;;
23668;SDS011;12011;47.422;15.018;2023-02-01T09:48:52;0.27;;;0.27;;
23668;SDS011;12011;47.422;15.018;2023-02-01T09:51:27;0.31;;;0.30;;
23668;SDS011;12011;47.422;15.018;2023-02-01T09:54:04;0.60;;;0.59;;
23668;SDS011;12011;47.422;15.018;2023-02-01T09:56:40;0.50;;;0.49;;
23668;SDS011;12011;47.422;15.018;2023-02-01T09:59:22;0.51;;;0.50;;
23668;SDS011;12011;47.422;15.018;2023-02-01T10:02:10;0.32;;;0.32;;
23668;SDS011;12011;47.422;15.018;2023-02-01T10:04:44;0.27;;;0.27;;
23668;SDS011;12011;47.422;15.018;2023-02-01T10:07:20;0.39;;;0.39;;
23668;SDS011;12011;47.422;15.018;2023-02-01T10:10:02;0.22;;;0.22;;
23668;SDS011;12011;47.422;15.018;2023-02-01T10:15:50;0.27;;;0.26;;
23668;SDS011;12011;47.422;15.018;2023-02-01T10:21:41;0.17;;;0.16;;
23668;SDS011;12011;47.422;15.018;2023-02-01T10:24:28;0.27;;;0.26;;
23668;SDS011;12011;47.422;15.018;2023-02-01T10:27:11;0.27;;;0.27;;
23668;SDS011;12011;47.422;15.018;2023-02-01T10:29:47;0.23;;;0.22;;
23668;SDS011;12011;47.422;15.018;2023-02-01T10:32:23;0.19;;;0.19;;
23668;SDS011;12011;47.422;15.018;2023-02-01T10:35:04;0.25;;;0.25;;
23668;SDS011;12011;47.422;15.018;2023-02-01T10:37:44;0.18;;;0.18;;
23668;SDS011;12011;47.422;15.018;2023-02-01T10:40:17;0.34;;;0.33;;
23668;SDS011;12011;47.422;15.018;2023-02-01T10:42:50;0.55;;;0.54;;
23668;SDS011;12011;47.422;15.018;2023-02-01T10:45:27;0.30;;;0.29;;
23668;SDS011;12011;47.422;15.018;2023-02-01T10:48:00;0.32;;;0.32;;
23668;SDS011;12011;47.422;15.018;2023-02-01T10:50:35;0.43;;;0.42;;
23668;SDS011;12011;47.422;15.018;2023-02-01T10:53:15;0.36;;;0.35;;
23668;SDS011;12011;47.422;15.018;2023-02-01T10:55:52;0.42;;;0.41;;
23668;SDS011;12011;47.422;15.018;2023-02-01T10:58:26;0.51;;;0.50;;
23668;SDS011;12011;47.422;15.018;2023-02-01T11:00:59;0.14;;;0.14;;
23668;SDS011;12011;47.422;15.018;2023-02-01T11:03:33;0.25;;;0.25;;
23668;SDS011;12011;47.422;15.018;2023-02-01T11:06:19;0.24;;;0.23;;
23668;SDS011;12011;47.422;15.018;2023-02-01T11:08:56;0.20;;;0.19;;
23668;SDS011;12011;47.422;15.018;2023-02-01T11:11:52;0.30;;;0.29;;
23668;SDS011;12011;47.422;15.018;2023-02-01T11:14:35;0.29;;;0.29;;
23668;SDS011;12011;47.422;15.018;2023-02-01T11:17:21;0.42;;;0.41;;
23668;SDS011;12011;47.422;15.018;2023-02-01T11:19:57;0.18;;;0.18;;
23668;SDS011;12011;47.422;15.018;2023-02-01T11:22:31;0.23;;;0.22;;
23668;SDS011;12011;47.422;15.018;2023-02-01T11:25:01;0.29;;;0.28;;
23668;SDS011;12011;47.422;15.018;2023-02-01T11:27:38;0.31;;;0.31;;
23668;SDS011;12011;47.422;15.018;2023-02-01T11:30:13;0.20;;;0.19;;
23668;SDS011;12011;47.422;15.018;2023-02-01T11:32:47;0.17;;;0.17;;
23668;SDS011;12011;47.422;15.018;2023-02-01T11:35:19;0.28;;;0.28;;
23668;SDS011;12011;47.422;15.018;2023-02-01T11:37:54;0.32;;;0.32;;
23668;SDS011;12011;47.422;15.018;2023-02-01T11:40:29;1.04;;;1.02;;
23668;SDS011;12011;47.422;15.018;2023-02-01T11:43:07;0.35;;;0.34;;
23668;SDS011;12011;47.422;15.018;2023-02-01T11:45:43;0.29;;;0.28;;
23668;SDS011;12011;47.422;15.018;2023-02-01T11:48:25;0.43;;;0.41;;
23668;SDS011;12011;47.422;15.018;2023-02-01T11:51:04;0.66;;;0.63;;
23668;SDS011;12011;47.422;15.018;2023-02-01T11:54:01;0.37;;;0.35;;
23668;SDS011;12011;47.422;15.018;2023-02-01T11:57:12;0.39;;;0.37;;
23668;SDS011;12011;47.422;15.018;2023-02-01T12:00:18;0.37;;;0.36;;
23668;SDS011;12011;47.422;15.018;2023-02-01T12:03:29;0.41;;;0.39;;
23668;SDS011;12011;47.422;15.018;2023-02-01T12:06:38;0.42;;;0.41;;
23668;SDS011;12011;47.422;15.018;2023-02-01T12:09:34;0.45;;;0.44;;
23668;SDS011;12011;47.422;15.018;2023-02-01T12:12:18;0.44;;;0.43;;
23668;SDS011;12011;47.422;15.018;2023-02-01T12:15:08;0.53;;;0.52;;
23668;SDS011;12011;47.422;15.018;2023-02-01T12:18:01;0.35;;;0.34;;
23668;SDS011;12011;47.422;15.018;2023-02-01T12:21:17;0.27;;;0.26;;
23668;SDS011;12011;47.422;15.018;2023-02-01T12:24:21;0.26;;;0.26;;
23668;SDS011;12011;47.422;15.018;2023-02-01T12:27:14;0.34;;;0.33;;
23668;SDS011;12011;47.422;15.018;2023-02-01T12:30:14;0.26;;;0.25;;
23668;SDS011;12011;47.422;15.018;2023-02-01T12:33:27;0.20;;;0.20;;
23668;SDS011;12011;47.422;15.018;2023-02-01T12:36:14;0.23;;;0.23;;
23668;SDS011;12011;47.422;15.018;2023-02-01T12:38:55;0.34;;;0.33;;
23668;SDS011;12011;47.422;15.018;2023-02-01T12:41:49;0.23;;;0.23;;
23668;SDS011;12011;47.422;15.018;2023-02-01T12:44:35;0.30;;;0.30;;
23668;SDS011;12011;47.422;15.018;2023-02-01T12:47:14;0.39;;;0.39;;
23668;SDS011;12011;47.422;15.018;2023-02-01T12:49:54;0.41;;;0.41;;
23668;SDS011;12011;47.422;15.018;2023-02-01T12:52:32;0.42;;;0.42;;
23668;SDS011;12011;47.422;15.018;2023-02-01T12:55:15;0.37;;;0.37;;
23668;SDS011;12011;47.422;15.018;2023-02-01T12:57:56;0.32;;;0.32;;
23668;SDS011;12011;47.422;15.018;2023-02-01T13:00:36;0.77;;;0.76;;
23668;SDS011;12011;47.422;15.018;2023-02-01T13:03:15;0.50;;;0.48;;
23668;SDS011;12011;47.422;15.018;2023-02-01T13:06:04;0.56;;;0.54;;
23668;SDS011;12011;47.422;15.018;2023-02-01T13:08:43;0.35;;;0.34;;
23668;SDS011;12011;47.422;15.018;2023-02-01T13:11:20;0.54;;;0.52;;
23668;SDS011;12011;47.422;15.018;2023-02-01T13:14:02;1.17;;;1.13;;
23668;SDS011;12011;47.422;15.018;2023-02-01T13:16:42;0.97;;;0.93;;
23668;SDS011;12011;47.422;15.018;2023-02-01T13:19:16;0.77;;;0.72;;
23668;SDS011;12011;47.422;15.018;2023-02-01T13:21:55;0.56;;;0.53;;
23668;SDS011;12011;47.422;15.018;2023-02-01T13:24:33;0.44;;;0.42;;
23668;SDS011;12011;47.422;15.018;2023-02-01T13:27:11;0.51;;;0.49;;
23668;SDS011;12011;47.422;15.018;2023-02-01T13:29:46;0.45;;;0.43;;
23668;SDS011;12011;47.422;15.018;2023-02-01T13:35:47;1.25;;;1.18;;
23668;SDS011;12011;47.422;15.018;2023-02-01T13:42:15;0.54;;;0.52;;
23668;SDS011;12011;47.422;15.018;2023-02-01T13:44:55;0.52;;;0.51;;
23668;SDS011;12011;47.422;15.018;2023-02-01T13:47:30;0.88;;;0.86;;
23668;SDS011;12011;47.422;15.018;2023-02-01T13:50:12;0.68;;;0.67;;
23668;SDS011;12011;47.422;15.018;2023-02-01T13:52:52;0.63;;;0.62;;
23668;SDS011;12011;47.422;15.018;2023-02-01T13:55:29;1.01;;;0.99;;
23668;SDS011;12011;47.422;15.018;2023-02-01T13:58:09;0.85;;;0.84;;
23668;SDS011;12011;47.422;15.018;2023-02-01T14:00:50;0.73;;;0.72;;
23668;SDS011;12011;47.422;15.018;2023-02-01T14:03:59;0.57;;;0.56;;
23668;SDS011;12011;47.422;15.018;2023-02-01T14:09:16;0.99;;;0.98;;
23668;SDS011;12011;47.422;15.018;2023-02-01T14:15:20;1.75;;;1.73;;
23668;SDS011;12011;47.422;15.018;2023-02-01T14:17:57;1.70;;;1.68;;
23668;SDS011;12011;47.422;15.018;2023-02-01T14:23:22;1.40;;;1.38;;
23668;SDS011;12011;47.422;15.018;2023-02-01T14:26:05;1.35;;;1.33;;
23668;SDS011;12011;47.422;15.018;2023-02-01T14:29:00;0.97;;;0.95;;
23668;SDS011;12011;47.422;15.018;2023-02-01T14:31:43;1.26;;;1.24;;
23668;SDS011;12011;47.422;15.018;2023-02-01T14:34:29;1.22;;;1.21;;
23668;SDS011;12011;47.422;15.018;2023-02-01T14:37:09;1.26;;;1.25;;
23668;SDS011;12011;47.422;15.018;2023-02-01T14:39:54;1.26;;;1.25;;
23668;SDS011;12011;47.422;15.018;2023-02-01T14:42:37;1.53;;;1.52;;
23668;SDS011;12011;47.422;15.018;2023-02-01T14:51:17;3.21;;;3.12;;
23668;SDS011;12011;47.422;15.018;2023-02-01T14:53:49;2.53;;;2.48;;
23668;SDS011;12011;47.422;15.018;2023-02-01T14:56:19;2.19;;;2.16;;
23668;SDS011;12011;47.422;15.018;2023-02-01T14:58:52;2.06;;;2.03;;
23668;SDS011;12011;47.422;15.018;2023-02-01T15:01:30;1.38;;;1.35;;
23668;SDS011;12011;47.422;15.018;2023-02-01T15:04:04;1.39;;;1.37;;
23668;SDS011;12011;47.422;15.018;2023-02-01T15:06:42;1.33;;;1.31;;
23668;SDS011;12011;47.422;15.018;2023-02-01T15:09:17;1.04;;;1.03;;
23668;SDS011;12011;47.422;15.018;2023-02-01T15:11:53;1.12;;;1.11;;
23668;SDS011;12011;47.422;15.018;2023-02-01T15:14:32;1.55;;;1.53;;
23668;SDS011;12011;47.422;15.018;2023-02-01T15:17:16;0.99;;;0.98;;
23668;SDS011;12011;47.422;15.018;2023-02-01T15:19:53;1.05;;;1.04;;
23668;SDS011;12011;47.422;15.018;2023-02-01T15:22:27;1.35;;;1.33;;
23668;SDS011;12011;47.422;15.018;2023-02-01T15:24:58;1.03;;;1.02;;
23668;SDS011;12011;47.422;15.018;2023-02-01T15:27:29;1.09;;;1.07;;
23668;SDS011;12011;47.422;15.018;2023-02-01T15:30:07;1.21;;;1.18;;
23668;SDS011;12011;47.422;15.018;2023-02-01T15:32:45;1.40;;;1.37;;
23668;SDS011;12011;47.422;15.018;2023-02-01T15:38:31;0.73;;;0.71;;
23668;SDS011;12011;47.422;15.018;2023-02-01T15:41:06;0.75;;;0.74;;
23668;SDS011;12011;47.422;15.018;2023-02-01T15:43:41;0.97;;;0.96;;
23668;SDS011;12011;47.422;15.018;2023-02-01T15:46:17;0.95;;;0.94;;
23668;SDS011;12011;47.422;15.018;2023-02-01T15:48:53;0.77;;;0.77;;
23668;SDS011;12011;47.422;15.018;2023-02-01T15:51:24;0.80;;;0.80;;
23668;SDS011;12011;47.422;15.018;2023-02-01T15:54:01;1.24;;;1.23;;
23668;SDS011;12011;47.422;15.018;2023-02-01T15:56:35;1.03;;;1.03;;
23668;SDS011;12011;47.422;15.018;2023-02-01T15:59:13;0.82;;;0.81;;
23668;SDS011;12011;47.422;15.018;2023-02-01T16:01:46;0.65;;;0.65;;
23668;SDS011;12011;47.422;15.018;2023-02-01T16:04:18;0.77;;;0.76;;
23668;SDS011;12011;47.422;15.018;2023-02-01T16:06:50;0.82;;;0.81;;
23668;SDS011;12011;47.422;15.018;2023-02-01T16:09:25;0.98;;;0.97;;
23668;SDS011;12011;47.422;15.018;2023-02-01T16:12:22;0.78;;;0.76;;
23668;SDS011;12011;47.422;15.018;2023-02-01T16:15:00;0.82;;;0.81;;
23668;SDS011;12011;47.422;15.018;2023-02-01T16:17:30;0.82;;;0.81;;